Overview Statistics Trail Chart Weather Telemetry Raw packets
 

This is the latest recevied weather packets stored in our database for station/object WW5JC. If no packets are shown the sender has not sent any weather packets the latest 10 day(s).

<< 24 25 26 27 28 29 30 >>
Time Temp. Humidity Pressure Rain* Wind** Luminosity Snow
1788462818 31.67° C 62% 1015.9 hPa 0 mm - 712 W/m² -
1788462517 31.11° C 63% 1016.1 hPa 0 mm - 810 W/m² -
1788462212 30.56° C 65% 1016.2 hPa 0 mm - 282 W/m² -
1788461905 31.11° C 64% 1016.5 hPa 0 mm - 233 W/m² -
1788461601 31.67° C 62% 1016.4 hPa 0 mm - 282 W/m² -
1788461297 31.67° C 60% 1016.2 hPa 0 mm - 456 W/m² -
1788460993 30.56° C 64% 1016.7 hPa 0 mm - 542 W/m² -
1788460688 31.11° C 64% 1016.5 hPa 0 mm - 226 W/m² -
1788460383 30.56° C 65% 1016.5 hPa 0 mm - 365 W/m² -
1788460082 30.56° C 67% 1016.6 hPa 0 mm - 251 W/m² -
1788459776 30.56° C 67% 1016.5 hPa 0 mm - 189 W/m² -
1788459475 30.56° C 65% 1016.5 hPa 0 mm - 150 W/m² -
1788459171 31.11° C 65% 1016.5 hPa 0 mm - 128 W/m² -
1788458866 31.11° C 64% 1016.6 hPa 0 mm - 116 W/m² -
1788458564 31.11° C 65% 1016.7 hPa 0 mm - 189 W/m² -
1788458259 31.67° C 64% 1016.5 hPa 0 mm - 189 W/m² -
1788457958 31.11° C 63% 1016.6 hPa 0 mm - 237 W/m² -
1788457658 31.67° C 62% 1016.7 hPa 0 mm - 213 W/m² -
1788457353 31.67° C 63% 1016.7 hPa 0 mm - 266 W/m² -
1788457048 31.11° C 64% 1016.8 hPa 0 mm - 209 W/m² -
1788456744 31.67° C 63% 1016.6 hPa 0 mm - 162 W/m² -
1788456443 31.11° C 64% 1016.7 hPa 0 mm - 306 W/m² -
1788456138 31.11° C 66% 1016.9 hPa 0 mm - 254 W/m² -
1788455834 31.67° C 65% 1016.9 hPa 0 mm - 402 W/m² -
1788455530 31.11° C 65% 1016.7 hPa 0 mm - 334 W/m² -

* Rain latest hour (hover to see other rain measurements)
** Current wind speed in m/s (hover to see current wind gust speed)